Time;durP1;ratioP1;P1;durP2;ratioP2;P2;SDS_P1;SDS_P2;PMS_P1;PMS_P2;Temp;Humidity;BMP_temperature;BMP_pressure;BME280_temperature;BME280_humidity;BME280_pressure;Samples;Min_cycle;Max_cycle;Signal;HPM_P1;HPM_P2
2023/04/06 00:00:25;;;;;;;61.65;55.38;;;;;;;1.42;100.00;100854.19;5017790;28;20045;-83
2023/04/06 00:02:52;;;;;;;59.92;53.58;;;;;;;1.67;100.00;100844.88;5020841;28;20073;-83
2023/04/06 00:05:19;;;;;;;56.47;50.45;;;;;;;1.33;100.00;100848.03;5020064;28;20092;-83
2023/04/06 00:07:46;;;;;;;57.33;50.85;;;;;;;1.28;100.00;100842.41;5016918;28;20046;-83
2023/04/06 00:10:13;;;;;;;57.08;51.00;;;;;;;1.32;100.00;100850.78;5016086;28;20562;-83
2023/04/06 00:12:40;;;;;;;64.53;53.38;;;;;;;1.18;100.00;100846.00;5018665;28;20052;-83
2023/04/06 00:15:08;;;;;;;58.42;52.03;;;;;;;1.11;100.00;100841.31;5017414;28;20396;-83
2023/04/06 00:17:36;;;;;;;61.85;53.80;;;;;;;1.13;100.00;100843.81;5018147;28;20049;-83
2023/04/06 00:20:03;;;;;;;63.10;56.55;;;;;;;1.18;100.00;100835.53;5017934;28;20057;-83
2023/04/06 00:22:30;;;;;;;62.28;53.33;;;;;;;0.97;100.00;100826.09;5016395;28;20095;-83
2023/04/06 00:24:56;;;;;;;70.50;63.40;;;;;;;1.05;100.00;100818.34;5015874;28;20042;-83
2023/04/06 00:27:23;;;;;;;59.60;53.08;;;;;;;1.12;100.00;100823.81;5015546;28;20042;-83
2023/04/06 00:29:50;;;;;;;61.90;54.95;;;;;;;0.93;100.00;100827.31;5022671;28;20045;-83
2023/04/06 00:32:17;;;;;;;66.47;59.78;;;;;;;0.97;100.00;100814.78;5017378;28;20057;-83
2023/04/06 00:34:45;;;;;;;70.40;63.20;;;;;;;0.89;100.00;100818.94;5017503;28;20046;-83
2023/04/06 00:37:12;;;;;;;62.88;55.08;;;;;;;1.02;100.00;100818.63;5025362;28;20108;-84
2023/04/06 00:39:39;;;;;;;59.55;51.90;;;;;;;1.03;100.00;100820.28;5017697;28;20524;-83
2023/04/06 00:42:13;;;;;;;61.00;54.35;;;;;;;0.94;100.00;100817.69;5013950;28;20042;-81
2023/04/06 00:44:40;;;;;;;68.20;60.83;;;;;;;0.89;100.00;100811.09;5018563;28;20045;-81
2023/04/06 00:47:07;;;;;;;65.15;58.08;;;;;;;0.86;100.00;100806.13;5032680;28;20041;-81
2023/04/06 00:49:34;;;;;;;69.13;61.92;;;;;;;0.91;100.00;100805.72;5018812;28;20431;-81
2023/04/06 00:52:02;;;;;;;62.22;55.50;;;;;;;0.84;100.00;100807.25;5018495;28;20050;-81
2023/04/06 00:54:30;;;;;;;60.22;52.95;;;;;;;0.71;100.00;100804.94;5021704;28;20046;-81
2023/04/06 00:56:57;;;;;;;61.88;55.28;;;;;;;0.77;100.00;100804.38;5019668;28;20042;-81
2023/04/06 00:59:24;;;;;;;64.20;57.20;;;;;;;0.85;100.00;100801.88;5021276;28;20045;-81
2023/04/06 01:01:51;;;;;;;65.75;58.75;;;;;;;0.87;100.00;100805.16;5017880;28;20045;-81
2023/04/06 01:04:18;;;;;;;64.13;57.72;;;;;;;0.73;100.00;100795.16;5014481;28;20125;-81
2023/04/06 01:06:45;;;;;;;67.78;60.55;;;;;;;0.63;100.00;100796.94;5016674;28;20056;-81
2023/04/06 01:09:13;;;;;;;69.13;61.65;;;;;;;0.63;100.00;100791.72;5017333;28;20049;-81
2023/04/06 01:11:40;;;;;;;65.90;58.92;;;;;;;0.72;100.00;100796.09;5016808;28;20057;-81
2023/04/06 01:14:07;;;;;;;72.95;65.65;;;;;;;0.70;100.00;100790.22;5014906;28;20076;-81
2023/04/06 01:16:34;;;;;;;80.45;72.93;;;;;;;0.56;100.00;100785.41;5016889;28;20050;-81
2023/04/06 01:19:02;;;;;;;80.53;72.75;;;;;;;0.72;100.00;100785.66;5017017;28;20049;-81
2023/04/06 01:21:29;;;;;;;76.45;68.72;;;;;;;0.59;100.00;100785.13;5030468;28;20041;-81
2023/04/06 01:23:58;;;;;;;67.97;59.03;;;;;;;0.52;100.00;100776.19;5016468;28;20499;-81
2023/04/06 01:26:25;;;;;;;66.60;59.42;;;;;;;0.62;100.00;100784.84;5017250;28;20045;-81
2023/04/06 01:28:51;;;;;;;64.85;58.08;;;;;;;0.64;100.00;100767.25;5016853;28;20046;-81
2023/04/06 01:31:18;;;;;;;68.90;61.80;;;;;;;0.88;100.00;100767.59;5017974;28;20413;-81
2023/04/06 01:33:45;;;;;;;60.65;53.97;;;;;;;0.87;100.00;100772.97;5016087;28;20057;-81
2023/04/06 01:36:12;;;;;;;60.75;54.30;;;;;;;0.94;100.00;100773.22;5016975;28;20104;-81
2023/04/06 01:38:39;;;;;;;66.35;59.55;;;;;;;0.96;100.00;100766.88;5016734;28;20046;-81
2023/04/06 01:41:07;;;;;;;69.55;62.55;;;;;;;0.83;100.00;100759.34;5015523;28;20511;-81
2023/04/06 01:43:34;;;;;;;66.63;59.05;;;;;;;0.97;100.00;100762.47;5012826;28;20046;-80
2023/04/06 01:46:01;;;;;;;68.00;60.92;;;;;;;1.00;100.00;100749.09;5016156;28;20041;-81
2023/04/06 01:48:28;;;;;;;71.30;64.35;;;;;;;1.09;100.00;100749.09;5015439;28;20045;-83
2023/04/06 01:50:56;;;;;;;74.53;67.32;;;;;;;1.11;100.00;100739.28;5014830;28;20046;-83
2023/04/06 01:53:23;;;;;;;65.75;59.03;;;;;;;1.08;100.00;100738.75;5016211;28;20125;-83
2023/04/06 01:55:49;;;;;;;59.80;53.53;;;;;;;1.20;100.00;100742.03;5016211;28;20045;-84
2023/04/06 01:58:18;;;;;;;63.60;57.10;;;;;;;1.24;100.00;100753.84;5015671;28;20053;-83
2023/04/06 02:00:45;;;;;;;58.45;52.28;;;;;;;1.25;100.00;100740.63;5018077;28;20050;-83
2023/04/06 02:03:11;;;;;;;62.65;56.30;;;;;;;1.28;100.00;100740.34;5022591;28;20052;-83
2023/04/06 02:05:38;;;;;;;64.68;58.28;;;;;;;1.20;100.00;100736.78;5015347;28;20068;-83
2023/04/06 02:08:06;;;;;;;72.07;65.10;;;;;;;1.21;100.00;100739.28;5016605;28;20042;-83
2023/04/06 02:10:34;;;;;;;70.03;63.17;;;;;;;1.19;100.00;100733.34;5015710;28;20050;-81
2023/04/06 02:13:01;;;;;;;76.05;68.68;;;;;;;1.20;100.00;100732.38;5014512;28;20503;-81
2023/04/06 02:15:29;;;;;;;67.18;59.88;;;;;;;1.44;100.00;100733.66;5017138;28;20046;-81
2023/04/06 02:17:56;;;;;;;70.97;64.07;;;;;;;1.37;100.00;100726.38;5016256;28;20042;-81
2023/04/06 02:20:23;;;;;;;84.03;76.68;;;;;;;1.43;100.00;100724.16;5015955;28;20050;-81
2023/04/06 02:22:49;;;;;;;78.00;70.93;;;;;;;1.40;100.00;100724.44;5015654;28;20046;-83
2023/04/06 02:25:16;;;;;;;73.93;66.82;;;;;;;1.53;100.00;100715.25;5017005;28;20052;-84
2023/04/06 02:27:43;;;;;;;63.95;57.53;;;;;;;1.45;100.00;100715.16;5014484;28;20049;-83
2023/04/06 02:30:11;;;;;;;59.53;52.67;;;;;;;1.62;100.00;100704.88;5013492;28;20053;-83
2023/04/06 02:32:40;;;;;;;61.42;54.75;;;;;;;1.59;100.00;100701.59;5016297;28;20138;-83
2023/04/06 02:35:07;;;;;;;72.97;65.30;;;;;;;1.62;100.00;100710.13;5014713;28;20046;-83
2023/04/06 02:37:35;;;;;;;65.65;58.88;;;;;;;1.69;100.00;100716.41;5014343;28;20054;-84
2023/04/06 02:40:02;;;;;;;64.13;57.47;;;;;;;1.78;100.00;100712.91;5013882;28;20054;-84
2023/04/06 02:42:29;;;;;;;59.40;53.50;;;;;;;1.81;100.00;100710.78;5021059;28;20049;-84
2023/04/06 02:44:56;;;;;;;64.38;58.08;;;;;;;1.89;100.00;100714.47;5024241;28;20525;-84
2023/04/06 02:47:23;;;;;;;61.10;54.63;;;;;;;1.89;100.00;100715.31;5020546;28;20056;-84
2023/04/06 02:49:51;;;;;;;65.63;59.03;;;;;;;1.69;100.00;100711.97;5026615;28;20060;-83
2023/04/06 02:52:18;;;;;;;70.32;63.83;;;;;;;1.80;100.00;100716.19;5030056;28;20518;-83
2023/04/06 02:54:47;;;;;;;74.80;68.15;;;;;;;1.83;100.00;100713.28;5023957;28;20046;-83
2023/04/06 02:57:14;;;;;;;62.45;56.38;;;;;;;1.84;100.00;100707.06;5023788;28;20574;-83
2023/04/06 02:59:41;;;;;;;70.82;64.13;;;;;;;1.97;100.00;100706.72;5025085;28;20049;-83
2023/04/06 03:02:08;;;;;;;63.55;57.15;;;;;;;1.87;100.00;100712.00;5023347;28;20097;-83
2023/04/06 03:04:35;;;;;;;64.32;57.88;;;;;;;1.89;100.00;100696.97;5021843;28;20053;-83
2023/04/06 03:07:03;;;;;;;70.47;63.95;;;;;;;1.95;100.00;100693.75;5021204;28;20054;-83
2023/04/06 03:09:30;;;;;;;60.17;54.22;;;;;;;1.91;100.00;100697.66;5024460;28;20060;-83
2023/04/06 03:11:57;;;;;;;63.75;57.45;;;;;;;2.01;100.00;100694.94;5023324;28;20052;-83
2023/04/06 03:14:24;;;;;;;60.92;55.33;;;;;;;2.32;100.00;100691.91;5024819;28;20045;-83
2023/04/06 03:16:51;;;;;;;62.35;56.25;;;;;;;2.09;100.00;100702.03;5025783;28;20046;-83
2023/04/06 03:19:17;;;;;;;56.42;50.83;;;;;;;2.06;100.00;100697.94;5022089;28;20545;-83
2023/04/06 03:21:44;;;;;;;56.58;50.97;;;;;;;2.39;100.00;100698.19;5025910;28;20049;-84
2023/04/06 03:24:13;;;;;;;56.28;50.38;;;;;;;2.22;100.00;100695.44;5022176;28;20121;-84
2023/04/06 03:26:44;;;;;;;58.45;52.75;;;;;;;2.22;100.00;100700.69;5026584;28;20117;-83
2023/04/06 03:29:11;;;;;;;56.45;50.50;;;;;;;2.39;100.00;100703.41;5028628;28;20061;-84
2023/04/06 03:31:38;;;;;;;57.90;52.00;;;;;;;2.27;100.00;100700.25;5024537;28;20041;-84
2023/04/06 03:34:05;;;;;;;58.10;52.08;;;;;;;2.21;100.00;100701.66;5024143;28;20419;-83
2023/04/06 03:36:31;;;;;;;59.47;53.28;;;;;;;2.08;100.00;100689.91;5024073;28;20124;-83
2023/04/06 03:38:58;;;;;;;67.85;61.17;;;;;;;2.10;100.00;100704.53;5022989;28;20050;-83
2023/04/06 03:41:27;;;;;;;62.83;56.40;;;;;;;2.55;100.00;100694.88;5025935;28;20155;-84
2023/04/06 03:43:54;;;;;;;58.53;52.50;;;;;;;2.40;100.00;100700.66;5023317;28;20050;-83
2023/04/06 03:46:20;;;;;;;67.28;60.83;;;;;;;2.98;100.00;100694.78;5021469;28;20064;-83
2023/04/06 03:48:49;;;;;;;63.05;56.95;;;;;;;2.38;100.00;100693.91;5023106;28;20046;-84
2023/04/06 03:51:16;;;;;;;61.30;55.03;;;;;;;2.29;100.00;100693.84;5022072;28;20064;-83
2023/04/06 03:53:43;;;;;;;60.55;54.35;;;;;;;2.39;100.00;100695.56;5024417;28;20054;-83
2023/04/06 03:56:10;;;;;;;64.22;58.17;;;;;;;2.73;100.00;100690.38;5023221;28;20042;-83
2023/04/06 03:58:38;;;;;;;59.72;53.78;;;;;;;2.47;100.00;100700.88;5023687;28;20503;-83
2023/04/06 04:01:05;;;;;;;57.05;51.22;;;;;;;2.50;100.00;100701.38;5029090;28;20526;-84
2023/04/06 04:03:32;;;;;;;55.80;49.85;;;;;;;2.48;100.00;100699.88;5026125;28;20392;-83
2023/04/06 04:05:59;;;;;;;54.97;49.28;;;;;;;2.34;100.00;100705.69;5024300;28;20053;-84
2023/04/06 04:08:26;;;;;;;52.90;47.50;;;;;;;2.49;100.00;100710.22;5022966;28;20491;-83
2023/04/06 04:10:52;;;;;;;55.15;49.35;;;;;;;2.72;100.00;100707.94;5025518;28;20056;-84
2023/04/06 04:13:20;;;;;;;58.92;53.42;;;;;;;2.63;100.00;100705.38;5031353;28;20523;-83
2023/04/06 04:15:48;;;;;;;56.30;50.33;;;;;;;2.48;100.00;100713.00;5029856;28;20065;-83
2023/04/06 04:18:15;;;;;;;57.63;51.97;;;;;;;3.03;100.00;100702.19;5027309;28;20487;-83
2023/04/06 04:20:42;;;;;;;57.35;51.38;;;;;;;2.85;100.00;100707.50;5026757;28;20178;-84
2023/04/06 04:23:08;;;;;;;57.85;51.78;;;;;;;2.79;100.00;100708.13;5024193;28;20045;-84
2023/04/06 04:25:35;;;;;;;57.13;51.85;;;;;;;3.09;100.00;100708.63;5025177;28;20042;-83
2023/04/06 04:28:02;;;;;;;56.40;50.45;;;;;;;3.34;100.00;100710.34;5021863;28;20049;-83
2023/04/06 04:30:29;;;;;;;55.97;50.53;;;;;;;2.97;100.00;100710.69;5021566;28;20049;-83
2023/04/06 04:32:58;;;;;;;55.13;49.28;;;;;;;3.23;100.00;100710.63;5022951;28;20050;-84
2023/04/06 04:35:24;;;;;;;53.00;48.10;;;;;;;3.76;100.00;100706.03;5028081;28;20056;-83
2023/04/06 04:37:51;;;;;;;56.40;50.72;;;;;;;3.33;100.00;100715.72;5025920;28;20038;-84
2023/04/06 04:40:18;;;;;;;55.92;50.15;;;;;;;2.82;100.00;100714.88;5027026;28;20057;-83
2023/04/06 04:42:46;;;;;;;52.50;47.45;;;;;;;3.31;100.00;100713.28;5032216;28;20053;-84
2023/04/06 04:45:13;;;;;;;59.38;53.42;;;;;;;2.84;100.00;100713.72;5037146;28;20118;-83
2023/04/06 04:47:39;;;;;;;54.78;49.30;;;;;;;2.84;100.00;100702.41;5038829;28;20513;-84
2023/04/06 04:50:09;;;;;;;57.28;51.53;;;;;;;3.19;100.00;100715.38;5036219;28;20050;-84
2023/04/06 04:52:35;;;;;;;56.65;51.13;;;;;;;2.85;100.00;100720.63;5036702;28;20045;-83
2023/04/06 04:55:02;;;;;;;57.00;51.40;;;;;;;2.88;100.00;100720.31;5037264;28;20570;-83
2023/04/06 04:57:29;;;;;;;56.65;50.78;;;;;;;3.92;100.00;100707.84;5033398;28;20056;-83
2023/04/06 04:59:57;;;;;;;50.58;45.38;;;;;;;2.83;100.00;100719.94;5039544;28;20053;-83
2023/04/06 05:02:23;;;;;;;56.13;50.67;;;;;;;3.04;100.00;100716.94;5036990;28;20052;-83
2023/04/06 05:04:50;;;;;;;55.53;50.03;;;;;;;2.80;100.00;100722.88;5038121;28;20076;-83
2023/04/06 05:07:20;;;;;;;52.80;47.35;;;;;;;2.95;100.00;100718.69;5038503;28;20076;-84
2023/04/06 05:09:47;;;;;;;57.78;52.33;;;;;;;3.13;100.00;100726.50;5037084;28;20057;-84
2023/04/06 05:12:14;;;;;;;53.80;48.72;;;;;;;2.90;100.00;100714.91;5037212;28;20056;-83
2023/04/06 05:14:41;;;;;;;56.38;50.67;;;;;;;2.97;100.00;100719.38;5037750;28;20491;-83
2023/04/06 05:17:08;;;;;;;62.33;56.40;;;;;;;2.91;100.00;100720.00;5037861;28;20049;-83
2023/04/06 05:19:35;;;;;;;64.80;58.47;;;;;;;3.40;100.00;100722.03;5037387;28;20049;-83
2023/04/06 05:22:02;;;;;;;56.83;51.25;;;;;;;3.09;100.00;100719.09;5035646;28;20446;-84
2023/04/06 05:24:30;;;;;;;54.50;48.78;;;;;;;2.85;100.00;100718.00;5031313;28;20496;-83
2023/04/06 05:26:57;;;;;;;55.92;50.72;;;;;;;3.00;100.00;100701.69;5034546;28;20096;-83
2023/04/06 05:29:24;;;;;;;57.67;51.97;;;;;;;3.00;100.00;100709.56;5035690;28;20053;-83
2023/04/06 05:31:52;;;;;;;57.72;51.75;;;;;;;3.10;100.00;100718.94;5036719;28;20555;-83
2023/04/06 05:34:19;;;;;;;57.03;51.40;;;;;;;2.99;100.00;100713.94;5037885;28;20111;-84
2023/04/06 05:36:46;;;;;;;59.13;53.60;;;;;;;3.48;100.00;100703.66;5033352;28;20064;-83
2023/04/06 05:39:14;;;;;;;58.13;52.33;;;;;;;3.21;100.00;100713.41;5030180;28;20787;-84
2023/04/06 05:41:42;;;;;;;59.67;53.60;;;;;;;3.20;100.00;100711.75;5037143;28;20511;-83
2023/04/06 05:44:09;;;;;;;55.65;49.92;;;;;;;3.21;100.00;100712.59;5038922;28;20060;-84
2023/04/06 05:46:36;;;;;;;58.03;52.03;;;;;;;3.16;100.00;100707.81;5038729;28;20045;-84
2023/04/06 05:49:03;;;;;;;58.63;53.03;;;;;;;3.51;100.00;100702.50;5037734;28;20049;-84
2023/04/06 05:51:30;;;;;;;58.72;52.60;;;;;;;3.29;100.00;100699.47;5039782;28;20049;-84
2023/04/06 05:53:57;;;;;;;55.67;50.28;;;;;;;3.51;100.00;100692.00;5039461;28;20061;-84
2023/04/06 05:56:25;;;;;;;65.43;59.33;;;;;;;3.61;100.00;100700.59;5039103;28;20054;-83
2023/04/06 05:58:53;;;;;;;53.92;48.75;;;;;;;3.53;100.00;100696.13;5040033;28;20464;-84
2023/04/06 06:01:20;;;;;;;60.88;54.97;;;;;;;3.54;100.00;100696.94;5039057;28;20419;-83
2023/04/06 06:03:47;;;;;;;63.30;57.20;;;;;;;4.13;100.00;100695.88;5037155;28;20054;-84
2023/04/06 06:06:14;;;;;;;58.35;52.80;;;;;;;3.49;100.00;100696.59;5038652;28;20054;-83
2023/04/06 06:08:41;;;;;;;54.95;49.60;;;;;;;3.63;100.00;100699.44;5035584;28;20435;-84
2023/04/06 06:11:07;;;;;;;58.63;52.78;;;;;;;3.80;100.00;100694.19;5036415;28;20422;-83
2023/04/06 06:13:34;;;;;;;57.80;52.42;;;;;;;4.78;100.00;100696.78;5040404;28;20057;-84
2023/04/06 06:16:04;;;;;;;54.88;49.97;;;;;;;4.08;100.00;100694.72;5043893;28;20099;-84
2023/04/06 06:18:31;;;;;;;51.55;46.13;;;;;;;3.62;100.00;100691.72;5043667;28;20495;-84
2023/04/06 06:20:58;;;;;;;61.35;55.15;;;;;;;4.02;100.00;100688.31;5043950;28;20050;-84
2023/04/06 06:23:25;;;;;;;52.17;47.08;;;;;;;4.39;100.00;100683.53;5044013;28;20053;-84
2023/04/06 06:25:52;;;;;;;56.42;50.78;;;;;;;4.19;100.00;100680.44;5044536;28;20046;-84
2023/04/06 06:28:19;;;;;;;50.50;45.28;;;;;;;4.09;100.00;100684.06;5043377;28;20514;-83
2023/04/06 06:30:46;;;;;;;53.30;47.95;;;;;;;4.06;100.00;100680.94;5045831;28;20061;-84
2023/04/06 06:33:14;;;;;;;55.38;49.78;;;;;;;4.32;100.00;100694.69;5044497;28;20056;-83
2023/04/06 06:35:41;;;;;;;55.08;49.42;;;;;;;4.02;100.00;100690.94;5040327;28;20046;-84
2023/04/06 06:38:08;;;;;;;52.08;47.22;;;;;;;3.97;100.00;100700.31;5042699;28;20045;-83
2023/04/06 06:40:34;;;;;;;54.70;49.58;;;;;;;3.72;100.00;100695.00;5040231;28;20049;-84
2023/04/06 06:43:01;;;;;;;51.88;46.72;;;;;;;4.05;100.00;100698.47;5042617;28;20546;-83
2023/04/06 06:45:29;;;;;;;52.60;47.85;;;;;;;3.84;100.00;100695.50;5042422;28;20049;-84
2023/04/06 06:47:56;;;;;;;52.83;47.78;;;;;;;3.80;100.00;100687.13;5043019;28;20056;-84
2023/04/06 06:50:24;;;;;;;51.92;46.83;;;;;;;3.45;100.00;100696.13;5042217;28;20041;-83
2023/04/06 06:52:51;;;;;;;54.63;49.38;;;;;;;3.61;100.00;100701.41;5041666;28;20052;-84
2023/04/06 06:55:19;;;;;;;51.63;46.55;;;;;;;3.67;100.00;100705.19;5040157;28;20056;-84
2023/04/06 06:57:46;;;;;;;52.83;47.65;;;;;;;4.07;100.00;100691.28;5044400;28;20057;-84
2023/04/06 07:00:14;;;;;;;48.53;43.85;;;;;;;4.35;100.00;100690.94;5044104;28;20201;-84
2023/04/06 07:02:41;;;;;;;50.78;45.65;;;;;;;4.46;100.00;100695.84;5043433;28;20052;-83
2023/04/06 07:05:08;;;;;;;45.92;41.53;;;;;;;4.65;100.00;100692.03;5036865;28;20061;-84
2023/04/06 07:07:37;;;;;;;51.65;46.47;;;;;;;4.45;100.00;100696.00;5037407;28;20051;-83
2023/04/06 07:10:04;;;;;;;48.85;44.33;;;;;;;4.21;100.00;100691.63;5035967;28;20064;-84
2023/04/06 07:12:30;;;;;;;48.90;44.08;;;;;;;4.49;100.00;100692.88;5036034;28;20403;-84
2023/04/06 07:14:57;;;;;;;51.53;46.53;;;;;;;4.46;100.00;100685.34;5031609;28;20053;-84
2023/04/06 07:17:24;;;;;;;43.50;39.47;;;;;;;5.33;100.00;100684.59;5040064;28;20072;-84
2023/04/06 07:19:51;;;;;;;42.30;38.33;;;;;;;4.51;100.00;100682.22;5045141;28;20048;-84
2023/04/06 07:22:18;;;;;;;42.95;39.10;;;;;;;5.21;100.00;100684.97;5038736;28;20045;-84
2023/04/06 07:24:46;;;;;;;37.97;34.53;;;;;;;5.74;100.00;100683.31;5045741;28;20057;-84
2023/04/06 07:27:13;;;;;;;38.63;34.88;;;;;;;5.11;100.00;100688.78;5043637;28;20046;-83
2023/04/06 07:29:40;;;;;;;41.00;36.72;;;;;;;4.81;100.00;100684.13;5043742;28;20046;-84
2023/04/06 07:32:07;;;;;;;43.08;38.90;;;;;;;5.18;100.00;100689.75;5039869;28;20049;-84
2023/04/06 07:34:34;;;;;;;45.67;41.08;;;;;;;4.80;100.00;100686.91;5042793;28;20105;-84
2023/04/06 07:37:01;;;;;;;43.72;39.72;;;;;;;5.05;100.00;100693.75;5038020;28;20057;-84
2023/04/06 07:39:29;;;;;;;44.63;39.90;;;;;;;4.89;100.00;100674.53;5042917;28;20507;-84
2023/04/06 07:41:57;;;;;;;50.70;45.88;;;;;;;5.02;100.00;100685.34;5041101;28;20053;-84
2023/04/06 07:44:24;;;;;;;42.85;38.95;;;;;;;4.77;100.00;100676.72;5043892;28;20075;-84
2023/04/06 07:46:51;;;;;;;42.28;38.60;;;;;;;5.44;100.00;100686.81;5043483;28;20053;-84
2023/04/06 07:49:18;;;;;;;41.95;37.95;;;;;;;5.58;100.00;100685.25;5036604;28;20049;-84
2023/04/06 07:51:44;;;;;;;41.45;37.85;;;;;;;5.70;100.00;100670.69;5043710;28;20442;-84
2023/04/06 07:54:11;;;;;;;43.67;39.42;;;;;;;5.70;100.00;100679.41;5043336;28;20081;-84
2023/04/06 07:56:38;;;;;;;41.95;38.55;;;;;;;6.31;100.00;100683.94;5044621;28;20053;-84
2023/04/06 07:59:06;;;;;;;39.00;35.33;;;;;;;5.70;100.00;100681.22;5040312;28;20064;-84
2023/04/06 08:01:33;;;;;;;36.92;33.55;;;;;;;5.52;100.00;100684.13;5032360;28;20050;-84
2023/04/06 08:04:02;;;;;;;38.38;34.40;;;;;;;6.09;100.00;100681.16;5040599;28;20061;-84
2023/04/06 08:06:29;;;;;;;37.53;33.90;;;;;;;6.33;100.00;100684.56;5042485;28;20049;-85
2023/04/06 08:08:56;;;;;;;39.20;35.67;;;;;;;5.62;100.00;100686.53;5040545;28;20045;-84
2023/04/06 08:11:23;;;;;;;38.75;35.25;;;;;;;5.26;100.00;100672.09;5042475;28;20045;-84
2023/04/06 08:13:50;;;;;;;40.20;36.40;;;;;;;5.37;100.00;100670.06;5043408;28;20060;-84
2023/04/06 08:16:18;;;;;;;40.47;36.60;;;;;;;6.17;100.00;100667.06;5034887;28;20046;-84
2023/04/06 08:18:45;;;;;;;44.22;39.92;;;;;;;6.87;100.00;100682.53;5044527;28;20057;-84
2023/04/06 08:21:12;;;;;;;36.35;32.75;;;;;;;6.82;100.00;100684.09;5044949;28;20049;-84
2023/04/06 08:23:39;;;;;;;36.70;33.20;;;;;;;6.35;100.00;100690.47;5047108;28;20442;-84
2023/04/06 08:26:06;;;;;;;38.70;35.30;;;;;;;6.93;100.00;100681.00;5029906;28;20060;-84
2023/04/06 08:28:34;;;;;;;39.55;35.75;;;;;;;6.65;100.00;100683.41;5045038;28;20051;-85
2023/04/06 08:31:04;;;;;;;44.25;40.35;;;;;;;6.24;100.00;100675.09;5043754;28;20084;-84
2023/04/06 08:33:35;;;;;;;37.90;34.22;;;;;;;6.84;100.00;100679.44;5045871;28;20129;-84
2023/04/06 08:36:08;;;;;;;37.17;33.58;;;;;;;6.19;100.00;100673.78;5039653;28;20045;-84
2023/04/06 08:38:35;;;;;;;35.55;32.25;;;;;;;6.43;100.00;100677.22;5034217;28;20542;-84
2023/04/06 08:41:08;;;;;;;41.25;37.65;;;;;;;6.78;100.00;100674.91;5044562;28;20045;-84
2023/04/06 08:43:42;;;;;;;38.15;34.67;;;;;;;6.36;100.00;100674.47;5043093;28;20052;-84
2023/04/06 08:46:09;;;;;;;35.17;32.30;;;;;;;7.19;100.00;100671.75;5042584;28;20442;-84
2023/04/06 08:48:39;;;;;;;39.95;36.03;;;;;;;6.93;100.00;100665.16;5045780;28;20057;-84
2023/04/06 08:51:06;;;;;;;41.47;37.58;;;;;;;6.40;100.00;100674.94;5042249;28;20049;-84
2023/04/06 08:53:33;;;;;;;38.67;35.17;;;;;;;6.71;100.00;100674.78;5039276;28;20058;-84
2023/04/06 08:56:01;;;;;;;47.53;43.15;;;;;;;6.48;100.00;100676.69;5039053;28;20046;-84
2023/04/06 08:58:36;;;;;;;41.15;37.13;;;;;;;6.69;100.00;100671.53;5041976;28;20060;-84
2023/04/06 09:01:09;;;;;;;43.70;39.72;;;;;;;6.30;100.00;100674.38;5036599;28;20054;-84
2023/04/06 09:03:38;;;;;;;;;;;;;;;6.67;100.00;100662.97;5042548;28;20049;-84
2023/04/06 09:06:07;;;;;;;39.50;35.33;;;;;;;6.23;100.00;100668.97;5043695;28;19995;-84
2023/04/06 09:08:34;;;;;;;35.83;32.42;;;;;;;6.58;100.00;100671.97;5039658;28;20069;-84
2023/04/06 09:11:02;;;;;;;34.38;31.20;;;;;;;6.82;100.00;100670.88;5038961;28;20053;-84
2023/04/06 09:13:29;;;;;;;36.78;33.33;;;;;;;6.29;100.00;100676.19;5031361;28;20109;-84
2023/04/06 09:16:03;;;;;;;36.92;33.50;;;;;;;6.21;100.00;100684.19;5041296;28;20060;-84
2023/04/06 09:18:31;;;;;;;32.92;29.98;;;;;;;6.54;100.00;100684.69;5039026;28;20053;-84
2023/04/06 09:21:00;;;;;;;37.78;33.67;;;;;;;7.09;100.00;100678.16;5037511;28;20576;-84
2023/04/06 09:23:28;;;;;;;37.47;33.88;;;;;;;6.88;100.00;100678.88;5044165;28;20051;-84
2023/04/06 09:26:09;;;;;;;35.05;31.55;;;;;;;6.75;100.00;100670.78;5044483;28;20053;-84
2023/04/06 09:28:44;;;;;;;38.20;34.38;;;;;;;6.69;100.00;100686.50;5041552;28;20426;-84
2023/04/06 09:31:11;;;;;;;36.53;33.15;;;;;;;7.01;100.00;100672.13;5033703;28;20103;-84
2023/04/06 09:33:40;;;;;;;37.08;33.55;;;;;;;7.10;100.00;100671.03;5043669;28;20057;-84
2023/04/06 09:36:09;;;;;;;35.03;31.48;;;;;;;7.01;100.00;100682.69;5045693;28;20041;-85
2023/04/06 09:38:38;;;;;;;33.65;30.48;;;;;;;7.44;100.00;100670.41;5038457;28;20156;-84
2023/04/06 09:41:05;;;;;;;35.80;32.40;;;;;;;6.85;100.00;100681.91;5041758;28;20049;-84
2023/04/06 09:43:32;;;;;;;30.33;27.45;;;;;;;6.58;100.00;100679.88;5045190;28;20049;-84
2023/04/06 09:46:02;;;;;;;34.33;31.10;;;;;;;7.15;100.00;100681.06;5041076;28;20068;-84
2023/04/06 09:48:32;;;;;;;32.95;29.95;;;;;;;6.89;100.00;100677.88;5044302;28;20041;-84
2023/04/06 09:51:04;;;;;;;33.60;30.55;;;;;;;6.45;100.00;100663.88;5040248;28;20053;-84
2023/04/06 09:53:32;;;;;;;36.47;33.08;;;;;;;6.63;100.00;100659.06;5044364;28;20041;-84
2023/04/06 09:56:04;;;;;;;40.03;36.58;;;;;;;6.76;100.00;100667.16;5036567;28;20049;-84
2023/04/06 09:58:35;;;;;;;38.20;34.90;;;;;;;6.63;100.00;100672.25;5037546;28;20052;-84
2023/04/06 10:01:07;;;;;;;36.50;33.35;;;;;;;6.45;100.00;100669.94;5042858;28;20054;-84
2023/04/06 10:03:45;;;;;;;34.13;30.92;;;;;;;7.22;100.00;100674.03;5044748;28;20140;-84
2023/04/06 10:06:15;;;;;;;37.75;34.38;;;;;;;7.24;100.00;100667.56;5039932;28;20041;-84
2023/04/06 10:08:45;;;;;;;39.47;35.97;;;;;;;7.44;100.00;100678.34;5034088;28;20069;-84
2023/04/06 10:11:13;;;;;;;37.20;34.00;;;;;;;7.16;100.00;100670.31;5045192;28;20049;-84
2023/04/06 10:13:41;;;;;;;32.10;29.38;;;;;;;7.12;100.00;100671.69;5044331;28;20049;-84
2023/04/06 10:16:09;;;;;;;33.88;30.77;;;;;;;7.12;100.00;100676.97;5042132;28;20081;-84
2023/04/06 10:18:36;;;;;;;32.85;29.92;;;;;;;6.75;100.00;100664.69;5040222;28;20060;-84
2023/04/06 10:21:08;;;;;;;33.53;30.67;;;;;;;7.71;100.00;100676.00;5045636;28;20478;-84
2023/04/06 10:23:38;;;;;;;34.57;31.47;;;;;;;7.29;100.00;100670.47;5045052;28;20050;-84
2023/04/06 10:26:04;;;;;;;35.58;32.60;;;;;;;7.46;100.00;100668.41;5041905;28;20056;-85
2023/04/06 10:28:35;;;;;;;33.97;31.00;;;;;;;8.63;100.00;100657.47;5043685;28;20060;-84
2023/04/06 10:31:05;;;;;;;31.33;28.40;;;;;;;8.88;100.00;100654.34;5045841;28;20050;-85
2023/04/06 10:33:32;;;;;;;28.88;26.45;;;;;;;8.29;100.00;100652.94;5046162;28;20076;-85
2023/04/06 10:36:10;;;;;;;31.27;28.80;;;;;;;8.84;100.00;100645.16;5045276;28;20059;-84
2023/04/06 10:38:38;;;;;;;31.95;29.30;;;;;;;8.45;100.00;100663.25;5043765;28;20053;-85
2023/04/06 10:41:06;;;;;;;31.30;28.40;;;;;;;7.78;100.00;100659.19;5044198;28;20064;-84
2023/04/06 10:43:37;;;;;;;32.28;29.55;;;;;;;8.04;100.00;100650.66;5044956;28;20045;-84
2023/04/06 10:46:06;;;;;;;30.75;28.05;;;;;;;7.76;100.00;100640.06;5044355;28;20046;-84
2023/04/06 10:48:40;;;;;;;32.80;29.90;;;;;;;9.04;100.00;100639.94;5040518;28;20041;-84
2023/04/06 10:51:12;;;;;;;32.80;30.02;;;;;;;8.69;100.00;100645.28;5040639;28;20053;-84
2023/04/06 10:53:39;;;;;;;33.28;30.48;;;;;;;9.20;100.00;100642.25;5044896;28;20426;-84
2023/04/06 10:56:11;;;;;;;33.92;30.98;;;;;;;7.85;100.00;100637.28;5038864;28;20046;-84
2023/04/06 10:58:44;;;;;;;31.00;28.40;;;;;;;8.46;100.00;100630.47;5036938;28;20050;-85
2023/04/06 11:01:12;;;;;;;31.30;28.40;;;;;;;9.43;100.00;100627.84;5047177;28;20091;-85
2023/04/06 11:03:49;;;;;;;28.58;26.17;;;;;;;9.59;100.00;100627.44;5049666;28;20422;-84
2023/04/06 11:06:20;;;;;;;30.52;27.98;;;;;;;8.93;100.00;100631.53;5038693;28;20052;-85
2023/04/06 11:08:47;;;;;;;28.52;25.98;;;;;;;8.67;100.00;100624.28;5033552;28;20111;-85
2023/04/06 11:11:17;;;;;;;29.33;26.63;;;;;;;8.85;100.00;100623.75;5034320;28;20041;-84